createdAt,value
2016-05-11T00:00:42.450Z,14.99
2016-05-11T00:01:42.498Z,14.97
2016-05-11T00:02:55.251Z,15.05
2016-05-11T00:03:55.286Z,15
2016-05-11T00:05:01.772Z,14.9
2016-05-11T00:06:08.275Z,14.9
2016-05-11T00:06:45.466Z,14.97
2016-05-11T00:08:13.921Z,14.99
2016-05-11T00:09:13.925Z,14.94
2016-05-11T00:09:42.661Z,15.05
2016-05-11T00:10:42.694Z,14.96
2016-05-11T00:11:42.776Z,15
2016-05-11T00:12:55.310Z,14.92
2016-05-11T00:13:55.530Z,14.94
2016-05-11T00:15:01.956Z,14.92
2016-05-11T00:16:02.005Z,14.97
2016-05-11T00:16:42.664Z,14.96
2016-05-11T00:17:42.870Z,14.94
2016-05-11T00:18:45.904Z,14.86
2016-05-11T00:20:08.376Z,14.9
2016-05-11T00:20:42.893Z,14.93
2016-05-11T00:22:52.540Z,14.92
2016-05-11T00:23:52.432Z,14.87
2016-05-11T00:25:05.327Z,14.81
2016-05-11T00:25:52.438Z,14.86
2016-05-11T00:26:52.629Z,14.79
2016-05-11T00:27:52.476Z,14.78
2016-05-11T00:29:23.996Z,14.78
2016-05-11T00:30:08.090Z,14.74
2016-05-11T00:31:33.798Z,14.73
2016-05-11T00:32:17.658Z,14.71
2016-05-11T00:33:17.770Z,14.67
2016-05-11T00:34:30.556Z,14.67
2016-05-11T00:35:37.044Z,14.66
2016-05-11T00:36:43.562Z,14.73
2016-05-11T00:37:37.064Z,14.85
2016-05-11T00:39:17.880Z,14.78
2016-05-11T00:40:17.930Z,14.68
2016-05-11T00:41:30.763Z,14.71
2016-05-11T00:42:17.966Z,14.71
2016-05-11T00:43:17.968Z,14.56
2016-05-11T00:44:30.739Z,14.55
2016-05-11T00:45:30.774Z,14.56
2016-05-11T00:46:37.074Z,14.67
2016-05-11T00:47:20.933Z,14.59
2016-05-11T00:48:40.094Z,14.51
2016-05-11T00:49:33.816Z,14.44
2016-05-11T00:50:21.128Z,14.48
2016-05-11T00:51:21.130Z,14.48
2016-05-11T00:52:21.149Z,14.41
2016-05-11T00:54:36.266Z,14.43
2016-05-11T00:55:55.660Z,14.4
2016-05-11T00:56:39.662Z,14.25
2016-05-11T00:58:05.353Z,14.23
2016-05-11T00:58:49.293Z,14.26
2016-05-11T00:59:49.201Z,14.28
2016-05-11T01:00:49.361Z,14.25
2016-05-11T01:02:01.972Z,14.22
2016-05-11T01:02:49.381Z,14.26
2016-05-11T01:03:49.431Z,14.3
2016-05-11T01:05:02.168Z,14.26
2016-05-11T01:05:49.500Z,14.26
2016-05-11T01:07:15.158Z,14.45
2016-05-11T01:07:49.536Z,14.43
2016-05-11T01:09:20.835Z,14.41
2016-05-11T01:10:08.728Z,14.4
2016-05-11T01:10:49.559Z,14.44
2016-05-11T01:13:04.800Z,14.4
2016-05-11T01:14:04.692Z,14.38
2016-05-11T01:15:04.727Z,14.36
2016-05-11T01:16:17.729Z,14.28
2016-05-11T01:17:04.889Z,14.25
2016-05-11T01:18:04.937Z,14.37
2016-05-11T01:19:24.143Z,14.23
2016-05-11T01:20:04.974Z,14.2
2016-05-11T01:21:36.261Z,14.22
2016-05-11T01:22:24.199Z,14.31
2016-05-11T01:24:36.315Z,14.22
2016-05-11T01:25:05.081Z,14.26
2016-05-11T01:27:20.352Z,14.3
2016-05-11T01:28:20.371Z,14.19
2016-05-11T01:29:20.358Z,14.3
2016-05-11T01:30:21.064Z,14.18
2016-05-11T01:31:20.409Z,14.25
2016-05-11T01:32:20.444Z,14.11
2016-05-11T01:33:33.059Z,14.05
2016-05-11T01:34:21.903Z,14.12
2016-05-11T01:35:20.499Z,14.05
2016-05-11T01:36:23.548Z,14.03
2016-05-11T01:37:20.536Z,14.07
2016-05-11T01:38:20.413Z,14.07
2016-05-11T01:39:33.309Z,14.07
2016-05-11T01:40:33.343Z,14.04
2016-05-11T01:41:51.909Z,13.98
2016-05-11T01:42:39.864Z,13.94
2016-05-11T01:43:20.661Z,14
2016-05-11T01:44:46.370Z,14.03
2016-05-11T01:45:30.341Z,13.94
2016-05-11T01:46:30.359Z,14
2016-05-11T01:47:30.205Z,14.03
2016-05-11T01:48:30.381Z,13.94
2016-05-11T01:49:30.430Z,14
2016-05-11T01:50:30.449Z,13.97
2016-05-11T01:51:30.294Z,13.98
2016-05-11T01:52:30.469Z,13.98
2016-05-11T01:53:30.488Z,14.03
2016-05-11T01:54:30.193Z,13.98
2016-05-11T01:55:30.540Z,14.07
2016-05-11T01:56:30.590Z,14.01
2016-05-11T01:57:30.608Z,14
2016-05-11T01:58:30.720Z,14.01
2016-05-11T01:59:31.895Z,14.07
2016-05-11T02:00:30.693Z,13.98
2016-05-11T02:01:30.525Z,14.08
2016-05-11T02:02:43.417Z,14.04
2016-05-11T02:03:32.109Z,14.11
2016-05-11T02:04:30.737Z,14.04
2016-05-11T02:05:43.301Z,13.97
2016-05-11T02:06:30.631Z,14.05
2016-05-11T02:07:56.447Z,13.95
2016-05-11T02:08:40.403Z,13.97
2016-05-11T02:09:59.608Z,13.98
2016-05-11T02:10:40.455Z,13.95
2016-05-11T02:12:55.680Z,13.97
2016-05-11T02:13:55.572Z,13.98
2016-05-11T02:15:08.513Z,13.97
2016-05-11T02:16:08.500Z,13.95
2016-05-11T02:17:21.441Z,14
2016-05-11T02:17:55.802Z,13.98
2016-05-11T02:18:55.727Z,14.04
2016-05-11T02:19:55.855Z,14
2016-05-11T02:21:08.607Z,14
2016-05-11T02:22:08.625Z,13.91
2016-05-11T02:22:55.910Z,14.01
2016-05-11T02:24:21.584Z,13.95
2016-05-11T02:25:24.712Z,13.98
2016-05-11T02:26:31.263Z,13.95
2016-05-11T02:27:15.185Z,13.98
2016-05-11T02:29:12.176Z,13.83
2016-05-11T02:29:24.848Z,13.94
2016-05-11T02:30:24.709Z,13.98
2016-05-11T02:31:24.884Z,14.01
2016-05-11T02:32:24.918Z,13.95
2016-05-11T02:33:24.905Z,13.85
2016-05-11T02:34:37.770Z,13.82
2016-05-11T02:35:24.957Z,13.86
2016-05-11T02:36:24.662Z,13.87
2016-05-11T02:37:37.747Z,13.82
2016-05-11T02:38:25.700Z,13.73
2016-05-11T02:39:50.737Z,13.75
2016-05-11T02:40:37.801Z,13.82
2016-05-11T02:41:24.911Z,13.76
2016-05-11T02:42:25.101Z,13.8
2016-05-11T02:43:25.103Z,13.75
2016-05-11T02:44:28.171Z,13.78
2016-05-11T02:45:25.265Z,13.75
2016-05-11T02:46:25.175Z,13.75
2016-05-11T02:47:25.208Z,13.7
2016-05-11T02:48:25.055Z,13.75
2016-05-11T02:49:25.245Z,13.68
2016-05-11T02:50:25.091Z,13.68
2016-05-11T02:51:38.035Z,13.62
2016-05-11T02:52:25.144Z,13.58
2016-05-11T02:53:51.008Z,13.57
2016-05-11T02:54:25.399Z,13.61
2016-05-11T02:56:43.313Z,13.43
2016-05-11T02:57:43.503Z,13.37
2016-05-11T02:58:43.538Z,13.37
2016-05-11T02:59:56.119Z,13.31
2016-05-11T03:01:02.621Z,13.27
2016-05-11T03:01:43.607Z,13.39
2016-05-11T03:02:43.595Z,13.28
2016-05-11T03:03:43.659Z,13.37
2016-05-11T03:04:43.662Z,13.27
2016-05-11T03:05:43.682Z,13.36
2016-05-11T03:06:43.715Z,13.31
2016-05-11T03:07:43.718Z,13.39
2016-05-11T03:08:43.720Z,13.27
2016-05-11T03:09:43.754Z,13.39
2016-05-11T03:10:43.803Z,13.33
2016-05-11T03:12:03.009Z,13.24
2016-05-11T03:12:56.419Z,13.33
2016-05-11T03:14:03.047Z,13.4
2016-05-11T03:15:18.814Z,13.27
2016-05-11T03:16:12.692Z,13.28
2016-05-11T03:16:47.070Z,13.37
2016-05-11T03:17:47.089Z,13.45
2016-05-11T03:18:50.153Z,13.37
2016-05-11T03:19:56.469Z,13.4
2016-05-11T03:20:47.143Z,13.4
2016-05-11T03:21:47.146Z,13.42
2016-05-11T03:22:47.164Z,13.4
2016-05-11T03:23:50.229Z,13.42
2016-05-11T03:24:59.936Z,13.33
2016-05-11T03:25:47.219Z,13.33
2016-05-11T03:27:12.769Z,13.33
2016-05-11T03:27:48.678Z,13.36
2016-05-11T03:28:47.305Z,13.39
2016-05-11T03:30:00.042Z,13.3
2016-05-11T03:30:50.239Z,13.27
2016-05-11T03:31:47.406Z,13.31
2016-05-11T03:33:00.026Z,13.19
2016-05-11T03:33:47.523Z,13.27
2016-05-11T03:34:47.580Z,13.3
2016-05-11T03:35:47.634Z,13.26
2016-05-11T03:37:06.854Z,13.2
2016-05-11T03:37:47.699Z,13.17
2016-05-11T03:39:19.013Z,13.03
2016-05-11T03:39:49.171Z,13.06
2016-05-11T03:40:47.623Z,13.09
2016-05-11T03:42:00.553Z,13.12
2016-05-11T03:43:06.888Z,13.08
2016-05-11T03:44:13.552Z,13.06
2016-05-11T03:45:13.873Z,13.06
2016-05-11T03:45:48.145Z,13.08
2016-05-11T03:47:13.619Z,13.11
2016-05-11T03:47:49.358Z,13.06
2016-05-11T03:48:47.971Z,13.11
2016-05-11T03:49:54.257Z,13.12
2016-05-11T03:50:48.043Z,13.06
2016-05-11T03:51:48.045Z,13.05
2016-05-11T03:52:47.909Z,13.05
2016-05-11T03:54:08.693Z,13.21
2016-05-11T03:54:52.634Z,13.2
2016-05-11T03:55:52.496Z,13.13
2016-05-11T03:57:05.421Z,13.21
2016-05-11T03:58:05.424Z,13.23
2016-05-11T03:58:52.708Z,13.26
2016-05-11T04:00:12.227Z,13.23
2016-05-11T04:00:52.762Z,13.21
2016-05-11T04:02:18.467Z,13.24
2016-05-11T04:02:52.814Z,13.24
2016-05-11T04:03:52.801Z,13.28
2016-05-11T04:05:12.022Z,13.24
2016-05-11T04:05:54.321Z,13.27
2016-05-11T04:07:24.152Z,13.43
2016-05-11T04:07:59.172Z,13.36
2016-05-11T04:08:52.783Z,13.37
2016-05-11T04:09:52.973Z,13.36
2016-05-11T04:11:05.538Z,13.39
2016-05-11T04:12:05.727Z,13.42
2016-05-11T04:13:18.684Z,13.5
2016-05-11T04:14:13.641Z,13.46
2016-05-11T04:15:23.518Z,13.54
2016-05-11T04:15:58.021Z,13.57
2016-05-11T04:16:57.741Z,13.57
2016-05-11T04:17:57.776Z,13.62
2016-05-11T04:19:17.091Z,13.64
2016-05-11T04:19:57.796Z,13.75
2016-05-11T04:21:29.174Z,13.7
2016-05-11T04:22:10.615Z,13.83
2016-05-11T04:22:57.742Z,13.8
2016-05-11T04:24:10.479Z,13.76
2016-05-11T04:24:57.888Z,13.83
2016-05-11T04:26:54.879Z,14
2016-05-11T04:27:07.394Z,13.95
2016-05-11T04:28:07.428Z,14.01
2016-05-11T04:29:07.274Z,13.98
2016-05-11T04:30:07.480Z,13.97
2016-05-11T04:31:20.201Z,14.05
2016-05-11T04:32:20.219Z,14.08
2016-05-11T04:33:07.535Z,14.13
2016-05-11T04:34:07.569Z,14.07
2016-05-11T04:35:20.274Z,14.18
2016-05-11T04:36:20.183Z,14.19
2016-05-11T04:37:07.577Z,14.26
2016-05-11T04:38:07.594Z,14.26
2016-05-11T04:39:07.614Z,14.36
2016-05-11T04:40:13.913Z,14.4
2016-05-11T04:41:20.510Z,14.34
2016-05-11T04:42:20.263Z,14.33
2016-05-11T04:43:27.530Z,14.44
2016-05-11T04:44:33.521Z,14.48
2016-05-11T04:45:07.614Z,14.45
2016-05-11T04:47:10.338Z,14.55
2016-05-11T04:47:22.854Z,14.56
2016-05-11T04:48:22.685Z,14.53
2016-05-11T04:49:42.237Z,14.56
2016-05-11T04:50:29.315Z,14.71
2016-05-11T04:53:00.807Z,14.7
2016-05-11T04:53:41.670Z,14.78
2016-05-11T04:55:12.953Z,14.92
2016-05-11T04:55:51.285Z,14.94
2016-05-11T04:58:13.540Z,15
2016-05-11T04:59:13.526Z,15.18
2016-05-11T05:00:26.232Z,15.18
2016-05-11T05:01:13.609Z,15.25
2016-05-11T05:02:32.787Z,15.25
2016-05-11T05:03:16.490Z,15.27
2016-05-11T05:05:16.215Z,15.48
2016-05-11T05:05:34.842Z,15.59
2016-05-11T05:06:34.845Z,15.92
2016-05-11T05:07:54.097Z,17.09
2016-05-11T05:08:36.335Z,17.76
2016-05-11T05:10:06.213Z,19.05
2016-05-11T05:11:15.684Z,19.38
2016-05-11T05:11:49.733Z,20.12
2016-05-11T05:12:50.064Z,20.75
2016-05-11T05:14:02.849Z,21.62
2016-05-11T05:14:51.647Z,22.16
2016-05-11T05:16:10.635Z,22.98
2016-05-11T05:17:02.872Z,23.66
2016-05-11T05:18:51.237Z,24.89
2016-05-11T05:19:50.224Z,25.34
2016-05-11T05:20:59.570Z,25.18
2016-05-11T05:21:59.885Z,25.09
2016-05-11T05:23:01.326Z,25.31
2016-05-11T05:24:12.765Z,25.33
2016-05-11T05:25:19.035Z,25.21
2016-05-11T05:26:22.208Z,24.88
2016-05-11T05:27:28.555Z,24.58
2016-05-11T05:28:22.245Z,24.66
2016-05-11T05:29:35.016Z,24.37
2016-05-11T05:30:35.082Z,24.99
2016-05-11T05:31:23.613Z,24.82
2016-05-11T05:32:22.522Z,24.46
2016-05-11T05:33:25.540Z,25.04
2016-05-11T05:34:25.403Z,25.41
2016-05-11T05:35:28.483Z,25.67
2016-05-11T05:38:06.553Z,25.48
2016-05-11T05:38:40.759Z,25.61
2016-05-11T05:39:40.919Z,25.66
2016-05-11T05:40:53.686Z,26.27
2016-05-11T05:41:40.970Z,26.55
2016-05-11T05:44:12.757Z,26.6
2016-05-11T05:45:44.060Z,27
2016-05-11T05:46:28.028Z,26.74
2016-05-11T05:47:28.046Z,26.64
2016-05-11T05:48:30.940Z,26.45
2016-05-11T05:49:29.568Z,25.91
2016-05-11T05:50:40.885Z,26.1
2016-05-11T05:51:47.388Z,25.55
2016-05-11T05:52:31.341Z,25.59
2016-05-11T05:53:31.390Z,26.07
2016-05-11T05:55:37.023Z,26.97
2016-05-11T05:55:49.711Z,27.11
2016-05-11T05:56:49.729Z,27.45
2016-05-11T05:57:52.951Z,27.97
2016-05-11T05:58:49.797Z,28.72
2016-05-11T06:00:02.565Z,29
2016-05-11T06:00:51.271Z,29.42
2016-05-11T06:02:46.731Z,29.64
2016-05-11T06:03:18.637Z,29.74
2016-05-11T06:04:02.748Z,29.06
2016-05-11T06:05:02.657Z,28.1
2016-05-11T06:06:21.550Z,29.03
2016-05-11T06:07:11.475Z,29.12
2016-05-11T06:08:24.603Z,29.47
2016-05-11T06:09:36.718Z,29.42
2016-05-11T06:10:15.218Z,28.46
2016-05-11T06:12:56.304Z,27.57
2016-05-11T06:13:30.633Z,27.63
2016-05-11T06:15:33.263Z,28.28
2016-05-11T06:16:11.921Z,28.2
2016-05-11T06:16:46.314Z,28.25
2016-05-11T06:18:48.882Z,29
2016-05-11T06:19:31.241Z,29.31
2016-05-11T06:20:17.027Z,29.84
2016-05-11T06:21:12.340Z,29.62
2016-05-11T06:23:46.287Z,29.09
2016-05-11T06:24:37.851Z,28.93
2016-05-11T06:25:25.648Z,29.15
2016-05-11T06:26:26.823Z,29.27
2016-05-11T06:27:25.841Z,29.47
2016-05-11T06:28:26.251Z,29.1
2016-05-11T06:29:25.754Z,28.97
2016-05-11T06:30:25.881Z,30.05
2016-05-11T06:31:25.977Z,30.39
2016-05-11T06:32:25.995Z,30.51
2016-05-11T06:33:26.390Z,30.63
2016-05-11T06:34:26.048Z,30.4
2016-05-11T06:35:38.695Z,30.95
2016-05-11T06:36:26.132Z,30.73
2016-05-11T06:37:26.009Z,30.85
2016-05-11T06:38:26.184Z,30.69
2016-05-11T06:39:26.233Z,31.05
2016-05-11T06:40:26.251Z,31.11
2016-05-11T06:41:26.208Z,30.39
2016-05-11T06:42:26.538Z,30.39
2016-05-11T06:43:26.213Z,30.69
2016-05-11T06:44:26.418Z,31.36
2016-05-11T06:45:26.530Z,31.55
2016-05-11T06:46:26.472Z,31.32
2016-05-11T06:47:26.505Z,31
2016-05-11T06:48:26.383Z,30.55
2016-05-11T06:49:26.572Z,30.36
2016-05-11T06:50:26.607Z,30.14
2016-05-11T06:51:28.078Z,29.84
2016-05-11T06:52:26.518Z,29.84
2016-05-11T06:53:26.771Z,29.62
2016-05-11T06:54:26.743Z,29.77
2016-05-11T06:55:26.807Z,30.51
2016-05-11T06:56:26.841Z,31.77
2016-05-11T06:57:26.735Z,31.14
2016-05-11T06:58:26.893Z,30.98
2016-05-11T06:59:39.649Z,30.55
2016-05-11T07:00:26.805Z,30.73
2016-05-11T07:01:46.202Z,29.9
2016-05-11T07:02:30.218Z,29.03
2016-05-11T07:03:30.266Z,29.47
2016-05-11T07:04:30.270Z,28.93
2016-05-11T07:05:30.366Z,28.75
2016-05-11T07:06:30.337Z,28.6
2016-05-11T07:07:49.561Z,29.13
2016-05-11T07:08:59.173Z,29.83
2016-05-11T07:09:33.392Z,30.13
2016-05-11T07:10:33.582Z,30.33
2016-05-11T07:11:52.837Z,29.49
2016-05-11T07:13:02.714Z,29.79
2016-05-11T07:13:36.980Z,30.24
2016-05-11T07:14:36.968Z,30.11
2016-05-11T07:15:37.174Z,30.01
2016-05-11T07:16:37.192Z,30.59
2016-05-11T07:17:37.210Z,30.7
2016-05-11T07:18:37.119Z,30.38
2016-05-11T07:19:37.310Z,30.02
2016-05-11T07:20:37.171Z,29.47
2016-05-11T07:21:37.377Z,29.15
2016-05-11T07:22:40.273Z,29.39
2016-05-11T07:23:37.413Z,29.9
2016-05-11T07:24:37.323Z,30.71
2016-05-11T07:25:37.513Z,30.85
2016-05-11T07:26:37.406Z,31.64
2016-05-11T07:27:37.597Z,32.05
2016-05-11T07:28:37.616Z,31.97
2016-05-11T07:29:37.665Z,32.39
2016-05-11T07:30:37.714Z,31.74
2016-05-11T07:31:37.717Z,31
2016-05-11T07:32:37.766Z,31.04
2016-05-11T07:33:37.784Z,30.85
2016-05-11T07:34:37.850Z,30.96
2016-05-11T07:35:37.868Z,31.86
2016-05-11T07:36:37.934Z,31.28
2016-05-11T07:37:50.673Z,30.83
2016-05-11T07:38:37.970Z,30.67
2016-05-11T07:39:38.004Z,30.21
2016-05-11T07:40:38.054Z,29.99
2016-05-11T07:41:38.087Z,29.44
2016-05-11T07:42:38.122Z,29.9
2016-05-11T07:43:50.892Z,30.39
2016-05-11T07:44:41.080Z,30.73
2016-05-11T07:45:57.367Z,31.02
2016-05-11T07:46:38.258Z,31.77
2016-05-11T07:48:03.966Z,31.23
2016-05-11T07:48:39.841Z,30.88
2016-05-11T07:50:09.768Z,31.1
2016-05-11T07:50:53.567Z,31.44
2016-05-11T07:51:53.773Z,31.5
2016-05-11T07:53:00.104Z,30.11
2016-05-11T07:53:53.701Z,29.44
2016-05-11T07:54:53.891Z,28.65
2016-05-11T07:55:53.941Z,28.23
2016-05-11T07:56:53.974Z,27.98
2016-05-11T07:57:53.835Z,27.85
2016-05-11T07:58:53.855Z,27.5
2016-05-11T07:59:54.061Z,27.22
2016-05-11T08:00:54.141Z,26.55
2016-05-11T08:02:06.879Z,26.18
2016-05-11T08:02:54.162Z,25.78
2016-05-11T08:04:19.884Z,25.33
2016-05-11T08:05:03.918Z,24.89
2016-05-11T08:06:03.921Z,24.58
2016-05-11T08:07:03.954Z,24.43
2016-05-11T08:08:03.988Z,24.04
2016-05-11T08:09:04.022Z,23.7
2016-05-11T08:10:03.900Z,23.73
2016-05-11T08:11:04.090Z,23.79
2016-05-11T08:12:16.734Z,23.52
2016-05-11T08:13:16.892Z,23.39
2016-05-11T08:14:04.208Z,23.2
2016-05-11T08:15:23.445Z,23.13
2016-05-11T08:16:33.509Z,23.14
2016-05-11T08:17:07.856Z,23.11
2016-05-11T08:18:07.890Z,23.16
2016-05-11T08:19:07.924Z,23.26
2016-05-11T08:20:07.942Z,23.42
2016-05-11T08:21:07.992Z,23.37
2016-05-11T08:22:07.994Z,23.51
2016-05-11T08:23:07.888Z,23.62
2016-05-11T08:24:08.094Z,23.36
2016-05-11T08:25:07.925Z,23.49
2016-05-11T08:26:08.130Z,23.62
2016-05-11T08:27:08.149Z,23.76
2016-05-11T08:28:08.183Z,23.63
2016-05-11T08:29:07.966Z,23.82
2016-05-11T08:30:08.251Z,23.73
2016-05-11T08:31:21.191Z,23.85
2016-05-11T08:32:08.318Z,23.95
2016-05-11T08:33:08.352Z,24.07
2016-05-11T08:34:21.105Z,24.16
2016-05-11T08:35:08.232Z,24.25
2016-05-11T08:36:08.267Z,24.14
2016-05-11T08:37:08.426Z,23.92
2016-05-11T08:38:08.475Z,24
2016-05-11T08:39:08.493Z,23.96
2016-05-11T08:40:08.371Z,23.86
2016-05-11T08:41:08.546Z,23.94
2016-05-11T08:42:08.595Z,23.92
2016-05-11T08:43:08.614Z,23.91
2016-05-11T08:44:08.679Z,23.85
2016-05-11T08:45:08.650Z,23.89
2016-05-11T08:46:08.747Z,23.99
2016-05-11T08:47:08.750Z,24.01
2016-05-11T08:48:08.767Z,23.92
2016-05-11T08:49:08.646Z,24.14
2016-05-11T08:50:08.805Z,24.03
2016-05-11T08:51:08.697Z,24.19
2016-05-11T08:52:08.856Z,24.16
2016-05-11T08:53:08.891Z,24.25
2016-05-11T08:54:08.924Z,24.24
2016-05-11T08:55:08.896Z,24.37
2016-05-11T08:56:08.992Z,24.48
2016-05-11T08:57:08.995Z,24.59
2016-05-11T08:58:08.872Z,24.65
2016-05-11T08:59:09.063Z,24.53
2016-05-11T09:00:09.144Z,24.48
2016-05-11T09:01:08.959Z,24.59
2016-05-11T09:02:09.227Z,24.75
2016-05-11T09:03:09.183Z,24.63
2016-05-11T09:04:09.264Z,24.65
2016-05-11T09:05:09.235Z,24.58
2016-05-11T09:06:09.284Z,24.59
2016-05-11T09:07:09.132Z,24.75
2016-05-11T09:08:09.306Z,24.53
2016-05-11T09:09:09.355Z,24.61
2016-05-11T09:10:09.359Z,24.65
2016-05-11T09:11:09.236Z,24.56
2016-05-11T09:12:09.426Z,24.41
2016-05-11T09:13:15.585Z,24.48
2016-05-11T09:14:09.462Z,24.55
2016-05-11T09:15:09.372Z,24.63
2016-05-11T09:16:25.608Z,24.62
2016-05-11T09:17:09.408Z,24.55
2016-05-11T09:18:35.145Z,24.43
2016-05-11T09:19:19.163Z,24.61
2016-05-11T09:20:38.354Z,24.63
2016-05-11T09:21:19.169Z,24.59
2016-05-11T09:22:19.203Z,24.65
2016-05-11T09:23:31.956Z,24.68
2016-05-11T09:24:19.083Z,24.68
2016-05-11T09:25:44.820Z,24.59
2016-05-11T09:26:28.480Z,24.66
2016-05-11T09:27:28.497Z,24.59
2016-05-11T09:28:41.422Z,24.66
2016-05-11T09:29:30.097Z,24.59
2016-05-11T09:30:54.977Z,24.94
2016-05-11T09:31:39.165Z,24.93
2016-05-11T09:33:04.888Z,24.79
2016-05-11T09:33:50.251Z,24.78
2016-05-11T09:34:50.285Z,24.85
2016-05-11T09:35:53.334Z,25.03
2016-05-11T09:37:03.134Z,24.92
2016-05-11T09:37:56.464Z,24.84
2016-05-11T09:40:00.096Z,25
2016-05-11T09:40:25.486Z,25.06
2016-05-11T09:41:12.488Z,25.03
2016-05-11T09:42:12.788Z,25.04
2016-05-11T09:43:25.556Z,25.21
2016-05-11T09:44:32.043Z,25.12
2016-05-11T09:45:44.467Z,25.03
2016-05-11T09:46:35.408Z,25.03
2016-05-11T09:47:16.270Z,25.14
2016-05-11T09:48:47.541Z,25.29
2016-05-11T09:49:19.181Z,25.29
2016-05-11T09:50:16.153Z,25.26
2016-05-11T09:51:29.078Z,25.34
2016-05-11T09:52:28.940Z,25.36
2016-05-11T09:53:41.895Z,25.36
2016-05-11T09:54:42.102Z,25.37
2016-05-11T09:55:47.794Z,25.15
2016-05-11T09:56:54.891Z,25.07
2016-05-11T09:57:16.516Z,25.11
2016-05-11T09:58:16.519Z,25.29
2016-05-11T09:59:29.286Z,25.41
2016-05-11T10:00:16.602Z,25.54
2016-05-11T10:02:51.938Z,25.51
2016-05-11T10:03:26.266Z,25.49
2016-05-11T10:04:57.600Z,25.29
2016-05-11T10:05:32.475Z,25.34
2016-05-11T10:08:03.749Z,25.54
2016-05-11T10:08:44.530Z,25.51
2016-05-11T10:10:15.707Z,25.44
2016-05-11T10:11:18.898Z,25.54
2016-05-11T10:12:18.900Z,25.43
2016-05-11T10:14:02.312Z,25.19
2016-05-11T10:14:40.515Z,25.19
2016-05-11T10:15:40.392Z,25.22
2016-05-11T10:16:53.320Z,25.34
2016-05-11T10:17:40.585Z,25.44
2016-05-11T10:19:06.326Z,25.46
2016-05-11T10:19:50.343Z,25.51
2016-05-11T10:21:09.596Z,25.44
2016-05-11T10:22:56.132Z,25.18
2016-05-11T10:23:53.183Z,25.11
2016-05-11T10:24:21.542Z,25.09
2016-05-11T10:26:24.031Z,25.37
2016-05-11T10:26:36.594Z,25.37
2016-05-11T10:27:36.784Z,25.34
2016-05-11T10:29:33.633Z,25.63
2016-05-11T10:30:43.152Z,25.73
2016-05-11T10:31:14.919Z,25.66
2016-05-11T10:32:50.955Z,25.62
2016-05-11T10:34:53.288Z,25.93
2016-05-11T10:35:25.087Z,26.04
2016-05-11T10:36:05.919Z,26.24
2016-05-11T10:38:03.064Z,26.52
2016-05-11T10:39:14.098Z,26.53
2016-05-11T10:40:23.554Z,26.37
2016-05-11T10:41:33.025Z,26.19
2016-05-11T10:42:42.669Z,25.98
2016-05-11T10:43:52.280Z,26.07
2016-05-11T10:45:01.848Z,26.16
2016-05-11T10:46:11.460Z,26.01
2016-05-11T10:47:14.650Z,26.06
2016-05-11T10:48:24.106Z,26.15
2016-05-11T10:49:33.578Z,26.08
2016-05-11T10:50:43.206Z,26.39
2016-05-11T10:51:46.083Z,26.78
2016-05-11T10:52:55.820Z,27.07
2016-05-11T10:54:05.607Z,27.05
2016-05-11T10:55:15.250Z,26.93
2016-05-11T10:56:24.894Z,26.74
2016-05-11T10:57:34.599Z,26.51
2016-05-11T10:58:44.492Z,26.48
2016-05-11T10:59:54.152Z,26.3
2016-05-11T11:01:04.000Z,26.22
2016-05-11T11:02:13.675Z,26.42
2016-05-11T11:03:23.131Z,26.68
2016-05-11T11:04:32.728Z,26.66
2016-05-11T11:06:35.358Z,26.61
2016-05-11T11:07:13.705Z,26.31
2016-05-11T11:07:48.033Z,26.37
2016-05-11T11:09:50.647Z,26.63
2016-05-11T11:10:03.306Z,26.53
2016-05-11T11:11:03.403Z,26.55
2016-05-11T11:12:29.046Z,26.39
2016-05-11T11:13:38.657Z,26.53
2016-05-11T11:14:36.755Z,26.23
2016-05-11T11:15:41.898Z,26.11
2016-05-11T11:16:35.243Z,26.39
2016-05-11T11:17:54.621Z,26.73
2016-05-11T11:18:54.719Z,26.82
2016-05-11T11:20:06.754Z,26.91
2016-05-11T11:21:32.321Z,26.83
2016-05-11T11:22:47.370Z,26.7
2016-05-11T11:23:19.138Z,26.71
2016-05-11T11:24:01.703Z,27.08
2016-05-11T11:26:02.568Z,27.15
2016-05-11T11:26:40.787Z,27.15
2016-05-11T11:27:15.148Z,27.19
2016-05-11T11:29:17.764Z,26.96
2016-05-11T11:29:56.076Z,27
2016-05-11T11:30:30.281Z,27.04
2016-05-11T11:32:04.803Z,27.04
2016-05-11T11:32:43.162Z,27.08
2016-05-11T11:33:43.025Z,27.03
2016-05-11T11:34:43.058Z,27.03
2016-05-11T11:35:55.952Z,27.29
2016-05-11T11:36:56.063Z,27.38
2016-05-11T11:38:09.100Z,27.2
2016-05-11T11:39:03.977Z,27.16
2016-05-11T11:40:46.043Z,27.01
2016-05-11T11:41:24.358Z,26.98
2016-05-11T11:43:21.379Z,26.92
2016-05-11T11:43:37.051Z,26.76
2016-05-11T11:45:08.385Z,26.96
2016-05-11T11:45:40.291Z,26.74
2016-05-11T11:48:21.080Z,26.89
2016-05-11T11:48:55.424Z,26.88
2016-05-11T11:49:55.443Z,26.78
2016-05-11T11:50:57.070Z,26.45
2016-05-11T11:52:08.420Z,26.22
2016-05-11T11:53:08.281Z,26.13
2016-05-11T11:54:21.409Z,26.27
2016-05-11T11:55:21.442Z,26.16
2016-05-11T11:57:21.558Z,26.01
2016-05-11T11:57:34.229Z,25.98
2016-05-11T11:59:46.782Z,25.76
2016-05-11T12:01:06.069Z,25.74
2016-05-11T12:02:15.492Z,25.8
2016-05-11T12:03:02.792Z,25.59
2016-05-11T12:04:28.561Z,25.61
2016-05-11T12:05:12.532Z,25.73
2016-05-11T12:06:12.550Z,25.71
2016-05-11T12:07:46.897Z,25.63
2016-05-11T12:08:31.009Z,25.54
2016-05-11T12:09:50.261Z,25.46
2016-05-11T12:10:34.218Z,25.51
2016-05-11T12:13:15.194Z,25.78
2016-05-11T12:14:28.057Z,25.78
2016-05-11T12:15:15.231Z,25.83
2016-05-11T12:17:12.237Z,26.01
2016-05-11T12:17:47.033Z,26.08
2016-05-11T12:18:56.676Z,25.93
2016-05-11T12:19:40.601Z,26.06
2016-05-11T12:20:40.635Z,26.24
2016-05-11T12:21:53.435Z,26.15
2016-05-11T12:22:40.546Z,26.16
2016-05-11T12:24:11.865Z,26.34
2016-05-11T12:24:55.662Z,26.36
2016-05-11T12:26:54.073Z,26.19
2016-05-11T12:28:03.548Z,26.23
2016-05-11T12:29:03.550Z,26.11
2016-05-11T12:29:32.284Z,26.26
2016-05-11T12:31:49.008Z,25.81
2016-05-11T12:32:49.058Z,25.67
2016-05-11T12:33:49.061Z,25.49
2016-05-11T12:35:01.894Z,25.33
2016-05-11T12:36:01.866Z,25.22
2016-05-11T12:37:14.847Z,25.19
2016-05-11T12:38:18.022Z,25.18
2016-05-11T12:39:18.119Z,25.29
2016-05-11T12:40:33.262Z,25.36
2016-05-11T12:41:02.062Z,25.36
2016-05-11T12:43:33.428Z,25.19
2016-05-11T12:46:08.643Z,25.36
2016-05-11T12:46:52.643Z,25.33
2016-05-11T12:47:52.812Z,25.36
2016-05-11T12:50:33.902Z,25.24
2016-05-11T12:51:08.473Z,25.25
2016-05-11T12:53:23.891Z,25.07
2016-05-11T12:54:23.754Z,24.97
2016-05-11T12:56:26.545Z,24.88
2016-05-11T12:57:04.861Z,25.01
2016-05-11T12:57:39.251Z,24.89
2016-05-11T13:00:20.060Z,24.86
2016-05-11T13:00:54.982Z,24.78
2016-05-11T13:03:38.366Z,24.92
2016-05-11T13:04:12.822Z,24.89
2016-05-11T13:06:53.516Z,25.04
2016-05-11T13:07:27.878Z,25.09
2016-05-11T13:09:30.477Z,25.01
2016-05-11T13:10:08.667Z,25.01
2016-05-11T13:10:43.152Z,25.07
2016-05-11T13:12:45.813Z,24.86
2016-05-11T13:13:24.004Z,24.88
2016-05-11T13:13:58.347Z,24.97
2016-05-11T13:16:40.449Z,25.06
2016-05-11T13:17:14.952Z,25.07
2016-05-11T13:18:46.267Z,25.25
2016-05-11T13:19:24.707Z,25.24
2016-05-11T13:20:24.741Z,25.31
2016-05-11T13:21:34.353Z,25.51
2016-05-11T13:22:34.216Z,25.43
2016-05-11T13:23:34.421Z,25.46
2016-05-11T13:24:34.454Z,25.3
2016-05-11T13:25:53.771Z,25.33
2016-05-11T13:26:34.507Z,25.29
2016-05-11T13:28:31.498Z,25.43
2016-05-11T13:29:06.250Z,25.59
2016-05-11T13:30:15.721Z,25.63
2016-05-11T13:31:03.521Z,25.63
2016-05-11T13:32:21.556Z,25.59
2016-05-11T13:33:31.214Z,25.67
2016-05-11T13:34:05.561Z,25.61
2016-05-11T13:35:05.406Z,25.61
2016-05-11T13:36:18.362Z,25.66
2016-05-11T13:37:18.364Z,25.74
2016-05-11T13:38:31.353Z,25.8
2016-05-11T13:39:31.277Z,25.89
2016-05-11T13:40:46.545Z,25.71
2016-05-11T13:41:46.641Z,25.74
2016-05-11T13:42:46.597Z,25.85
2016-05-11T13:43:46.303Z,25.89
2016-05-11T13:44:59.244Z,25.76
2016-05-11T13:45:48.622Z,25.71
2016-05-11T13:47:05.752Z,25.73
2016-05-11T13:48:02.348Z,25.77
2016-05-11T13:49:15.413Z,25.73
2016-05-11T13:49:49.632Z,25.74
2016-05-11T13:51:20.950Z,25.78
2016-05-11T13:51:59.310Z,25.76
2016-05-11T13:52:59.312Z,25.78
2016-05-11T13:53:59.173Z,25.83
2016-05-11T13:54:59.395Z,25.83
2016-05-11T13:56:11.995Z,25.91
2016-05-11T13:57:02.576Z,25.91